Terminal Aerodrome Forecast
Issued by NWS Wilmington, OH

Home | Current Version | Previous Version | Text Only | Print | Product List | Glossary On
Versions: 1 2 3 4 5 6 7 8 9 10 11 12 13 14 15 16 17 18 19 20 21 22 23 24 25
683
FTUS41 KILN 050154 AAB
TAFILN
TAF AMD
KILN 050154Z 0502/0524 31012KT P6SM OVC050
     FM050400 32011KT P6SM OVC015
     FM050700 33009KT P6SM OVC006
     FM051400 34010KT P6SM BKN025
     FM052000 35014G22KT P6SM BKN040=

USA.gov is the U.S. government's official web portal to all federal, state and local government web resources and services.